CEB245 RPLL-RPLK
Flight info
| Callsign | CEB245 |
|---|---|
| Flight time | 0h 48m |
| Altitude | 25000 |
| Route | TIMON2P TIMON W15 RAGAY RAGAY1B |
| Aircraft | A339/H-SADE1E2E3GHIJ3J5M1P2RWXY/LB2D1 |
Departure
| Time | 2026-04-16 13:49 |
|---|---|
| Airport | Ninoy Aquino International Airport (RPLL) |
Arrival
| Time | 2026-04-16 14:38 |
|---|---|
| Airport | Bicol International Airport (RPLK) |
| Time | Latitude | Longitude | Altitude | Speed | Heading |
|---|---|---|---|---|---|
| 2026-04-16 13:18 | 14.51569 | 121.01613 | 64 ft | 0 kts | 46° |
| 2026-04-16 13:34 | 14.51568 | 121.01611 | 64 ft | 1 kts | 46° |
| 2026-04-16 13:35 | 14.51557 | 121.01599 | 64 ft | 2 kts | 46° |
| 2026-04-16 13:35 | 14.51546 | 121.01588 | 64 ft | 2 kts | 46° |
| 2026-04-16 13:35 | 14.51536 | 121.01576 | 64 ft | 2 kts | 57° |
| 2026-04-16 13:35 | 14.51530 | 121.01562 | 63 ft | 2 kts | 73° |
| 2026-04-16 13:36 | 14.51527 | 121.01548 | 63 ft | 2 kts | 87° |
| 2026-04-16 13:36 | 14.51527 | 121.01533 | 63 ft | 2 kts | 101° |
| 2026-04-16 13:36 | 14.51531 | 121.01518 | 63 ft | 2 kts | 115° |
| 2026-04-16 13:36 | 14.51539 | 121.01505 | 62 ft | 2 kts | 129° |
| 2026-04-16 13:37 | 14.51544 | 121.01499 | 62 ft | 1 kts | 136° |
| 2026-04-16 13:37 | 14.51546 | 121.01498 | 62 ft | 0 kts | 136° |
| 2026-04-16 13:39 | 14.51545 | 121.01498 | 62 ft | 0 kts | 136° |
| 2026-04-16 13:39 | 14.51532 | 121.01511 | 62 ft | 11 kts | 136° |
| 2026-04-16 13:39 | 14.51494 | 121.01549 | 63 ft | 0 kts | 134° |
| 2026-04-16 13:42 | 14.51491 | 121.01553 | 63 ft | 1 kts | 133° |
| 2026-04-16 13:42 | 14.51481 | 121.01562 | 63 ft | 2 kts | 133° |
| 2026-04-16 13:42 | 14.51455 | 121.01592 | 64 ft | 8 kts | 134° |
| 2026-04-16 13:43 | 14.51409 | 121.01639 | 65 ft | 9 kts | 135° |
| 2026-04-16 13:43 | 14.51359 | 121.01689 | 65 ft | 10 kts | 136° |
| 2026-04-16 13:43 | 14.51303 | 121.01748 | 65 ft | 12 kts | 134° |
| 2026-04-16 13:43 | 14.51237 | 121.01817 | 63 ft | 14 kts | 135° |
| 2026-04-16 13:44 | 14.51162 | 121.01892 | 63 ft | 15 kts | 135° |
| 2026-04-16 13:44 | 14.51089 | 121.01968 | 63 ft | 13 kts | 134° |
| 2026-04-16 13:44 | 14.51071 | 121.02040 | 63 ft | 9 kts | 78° |
| 2026-04-16 13:44 | 14.51095 | 121.02084 | 64 ft | 6 kts | 61° |
| 2026-04-16 13:45 | 14.51132 | 121.02152 | 67 ft | 14 kts | 60° |
| 2026-04-16 13:45 | 14.51180 | 121.02241 | 70 ft | 13 kts | 60° |
| 2026-04-16 13:45 | 14.51224 | 121.02321 | 73 ft | 11 kts | 60° |
| 2026-04-16 13:45 | 14.51261 | 121.02385 | 77 ft | 8 kts | 59° |
| 2026-04-16 13:46 | 14.51291 | 121.02438 | 79 ft | 10 kts | 62° |
| 2026-04-16 13:46 | 14.51341 | 121.02530 | 82 ft | 18 kts | 60° |
| 2026-04-16 13:46 | 14.51403 | 121.02638 | 85 ft | 16 kts | 60° |
| 2026-04-16 13:46 | 14.51457 | 121.02737 | 87 ft | 15 kts | 60° |
| 2026-04-16 13:47 | 14.51487 | 121.02824 | 87 ft | 9 kts | 107° |
| 2026-04-16 13:47 | 14.51482 | 121.02838 | 87 ft | 0 kts | 116° |
| 2026-04-16 13:47 | 14.51481 | 121.02839 | 87 ft | 0 kts | 124° |
| 2026-04-16 13:47 | 14.51481 | 121.02840 | 87 ft | 0 kts | 124° |
| 2026-04-16 13:48 | 14.51467 | 121.02855 | 87 ft | 8 kts | 139° |
| 2026-04-16 13:48 | 14.51405 | 121.02870 | 88 ft | 9 kts | 195° |
| 2026-04-16 13:48 | 14.51352 | 121.02827 | 87 ft | 10 kts | 238° |
| 2026-04-16 13:48 | 14.51331 | 121.02789 | 86 ft | 25 kts | 239° |
| 2026-04-16 13:49 | 14.51116 | 121.02399 | 73 ft | 99 kts | 240° |
| 2026-04-16 13:49 | 14.50643 | 121.01559 | 64 ft | 167 kts | 240° |
| 2026-04-16 13:49 | 14.50039 | 121.00437 | 564 ft | 189 kts | 240° |
| 2026-04-16 13:49 | 14.49404 | 120.99267 | 1412 ft | 191 kts | 240° |
| 2026-04-16 13:50 | 14.48752 | 120.98079 | 2248 ft | 192 kts | 240° |
| 2026-04-16 13:50 | 14.48089 | 120.96898 | 2764 ft | 196 kts | 239° |
| 2026-04-16 13:50 | 14.47371 | 120.95648 | 3090 ft | 215 kts | 239° |
| 2026-04-16 13:50 | 14.46575 | 120.94250 | 3508 ft | 233 kts | 239° |
| 2026-04-16 13:51 | 14.45731 | 120.92754 | 3904 ft | 254 kts | 239° |
| 2026-04-16 13:51 | 14.44787 | 120.91111 | 4004 ft | 272 kts | 234° |
| 2026-04-16 13:51 | 14.43381 | 120.89825 | 3988 ft | 272 kts | 205° |
| 2026-04-16 13:51 | 14.41550 | 120.89392 | 3997 ft | 271 kts | 177° |
| 2026-04-16 13:52 | 14.39736 | 120.89860 | 4004 ft | 270 kts | 152° |
| 2026-04-16 13:52 | 14.38081 | 120.90843 | 4342 ft | 277 kts | 148° |
| 2026-04-16 13:52 | 14.36429 | 120.91842 | 5216 ft | 277 kts | 148° |
| 2026-04-16 13:52 | 14.34782 | 120.92823 | 6030 ft | 278 kts | 148° |
| 2026-04-16 13:53 | 14.33094 | 120.93822 | 6777 ft | 282 kts | 148° |
| 2026-04-16 13:53 | 14.31382 | 120.94828 | 7509 ft | 285 kts | 148° |
| 2026-04-16 13:53 | 14.29780 | 120.95998 | 8211 ft | 285 kts | 129° |
| 2026-04-16 13:53 | 14.28816 | 120.97737 | 8889 ft | 282 kts | 104° |
| 2026-04-16 13:54 | 14.28664 | 120.99724 | 9550 ft | 280 kts | 80° |
| 2026-04-16 13:54 | 14.29312 | 121.01607 | 10239 ft | 282 kts | 62° |
| 2026-04-16 13:54 | 14.30269 | 121.03389 | 10645 ft | 294 kts | 62° |
| 2026-04-16 13:54 | 14.31290 | 121.05297 | 10896 ft | 311 kts | 62° |
| 2026-04-16 13:55 | 14.32359 | 121.07309 | 11161 ft | 327 kts | 62° |
| 2026-04-16 13:55 | 14.33464 | 121.09399 | 11461 ft | 343 kts | 62° |
| 2026-04-16 13:55 | 14.34627 | 121.11607 | 11924 ft | 352 kts | 62° |
| 2026-04-16 13:55 | 14.35791 | 121.13819 | 12528 ft | 355 kts | 62° |
| 2026-04-16 13:56 | 14.36960 | 121.16044 | 13127 ft | 358 kts | 62° |
| 2026-04-16 13:56 | 14.38152 | 121.18313 | 13679 ft | 361 kts | 62° |
| 2026-04-16 13:56 | 14.39152 | 121.20688 | 14261 ft | 366 kts | 76° |
| 2026-04-16 13:56 | 14.39323 | 121.23294 | 14876 ft | 371 kts | 95° |
| 2026-04-16 13:57 | 14.38643 | 121.25859 | 15447 ft | 378 kts | 113° |
| 2026-04-16 13:57 | 14.37175 | 121.28126 | 15999 ft | 384 kts | 127° |
| 2026-04-16 13:57 | 14.35458 | 121.30292 | 16567 ft | 388 kts | 127° |
| 2026-04-16 13:58 | 14.32063 | 121.34655 | 17663 ft | 396 kts | 126° |
| 2026-04-16 13:58 | 14.30337 | 121.36890 | 18183 ft | 400 kts | 126° |
| 2026-04-16 13:58 | 14.28610 | 121.39130 | 18716 ft | 404 kts | 127° |
| 2026-04-16 13:58 | 14.26853 | 121.41409 | 19249 ft | 407 kts | 127° |
| 2026-04-16 13:59 | 14.25081 | 121.43708 | 19789 ft | 409 kts | 127° |
| 2026-04-16 13:59 | 14.23322 | 121.45989 | 20442 ft | 408 kts | 127° |
| 2026-04-16 13:59 | 14.21565 | 121.48269 | 21121 ft | 405 kts | 127° |
| 2026-04-16 13:59 | 14.19812 | 121.50541 | 21742 ft | 404 kts | 127° |
| 2026-04-16 14:00 | 14.18079 | 121.52791 | 22323 ft | 403 kts | 127° |
| 2026-04-16 14:00 | 14.16352 | 121.55031 | 22924 ft | 402 kts | 127° |
| 2026-04-16 14:00 | 14.14615 | 121.57282 | 23492 ft | 401 kts | 127° |
| 2026-04-16 14:00 | 14.12865 | 121.59551 | 23985 ft | 403 kts | 127° |
| 2026-04-16 14:01 | 14.11177 | 121.61838 | 24413 ft | 406 kts | 122° |
| 2026-04-16 14:01 | 14.09867 | 121.64426 | 24809 ft | 408 kts | 110° |
| 2026-04-16 14:01 | 14.09049 | 121.67239 | 24950 ft | 410 kts | 100° |
| 2026-04-16 14:01 | 14.08599 | 121.70136 | 24955 ft | 410 kts | 97° |
| 2026-04-16 14:02 | 14.08212 | 121.73013 | 24954 ft | 410 kts | 97° |
| 2026-04-16 14:02 | 14.07821 | 121.75934 | 24953 ft | 410 kts | 97° |
| 2026-04-16 14:02 | 14.07420 | 121.78855 | 24951 ft | 411 kts | 97° |
| 2026-04-16 14:02 | 14.07016 | 121.81739 | 24947 ft | 411 kts | 97° |
| 2026-04-16 14:03 | 14.06599 | 121.84666 | 24943 ft | 411 kts | 98° |
| 2026-04-16 14:03 | 14.06185 | 121.87556 | 24940 ft | 411 kts | 97° |
| 2026-04-16 14:03 | 14.05762 | 121.90440 | 24935 ft | 410 kts | 99° |
| 2026-04-16 14:03 | 14.05109 | 121.93326 | 24930 ft | 411 kts | 106° |
| 2026-04-16 14:04 | 14.04157 | 121.96062 | 24928 ft | 411 kts | 112° |
| 2026-04-16 14:04 | 14.02921 | 121.98730 | 24925 ft | 410 kts | 116° |
| 2026-04-16 14:04 | 14.01619 | 122.01331 | 24921 ft | 410 kts | 117° |
| 2026-04-16 14:04 | 14.00304 | 122.03929 | 24918 ft | 410 kts | 117° |
| 2026-04-16 14:05 | 13.98984 | 122.06543 | 24916 ft | 411 kts | 116° |
| 2026-04-16 14:05 | 13.97670 | 122.09157 | 24916 ft | 411 kts | 116° |
| 2026-04-16 14:05 | 13.96359 | 122.11773 | 24918 ft | 411 kts | 116° |
| 2026-04-16 14:05 | 13.95052 | 122.14386 | 24916 ft | 411 kts | 116° |
| 2026-04-16 14:06 | 13.93741 | 122.17008 | 24918 ft | 411 kts | 116° |
| 2026-04-16 14:06 | 13.92433 | 122.19621 | 24919 ft | 411 kts | 116° |
| 2026-04-16 14:06 | 13.91123 | 122.22235 | 24919 ft | 411 kts | 116° |
| 2026-04-16 14:06 | 13.89812 | 122.24850 | 24922 ft | 411 kts | 116° |
| 2026-04-16 14:07 | 13.88500 | 122.27464 | 24924 ft | 411 kts | 116° |
| 2026-04-16 14:07 | 13.87194 | 122.30071 | 24924 ft | 411 kts | 116° |
| 2026-04-16 14:07 | 13.85883 | 122.32684 | 24925 ft | 411 kts | 116° |
| 2026-04-16 14:07 | 13.84578 | 122.35287 | 24927 ft | 411 kts | 116° |
| 2026-04-16 14:08 | 13.83267 | 122.37900 | 24926 ft | 411 kts | 116° |
| 2026-04-16 14:08 | 13.81958 | 122.40507 | 24926 ft | 411 kts | 116° |
| 2026-04-16 14:08 | 13.80646 | 122.43123 | 24926 ft | 411 kts | 116° |
| 2026-04-16 14:08 | 13.79337 | 122.45734 | 24926 ft | 411 kts | 116° |
| 2026-04-16 14:09 | 13.78043 | 122.48312 | 24925 ft | 411 kts | 116° |
| 2026-04-16 14:09 | 13.76734 | 122.50919 | 24924 ft | 411 kts | 116° |
| 2026-04-16 14:09 | 13.75422 | 122.53529 | 24923 ft | 410 kts | 116° |
| 2026-04-16 14:09 | 13.74092 | 122.56146 | 24922 ft | 410 kts | 118° |
| 2026-04-16 14:10 | 13.72637 | 122.58678 | 24922 ft | 410 kts | 122° |
| 2026-04-16 14:10 | 13.71027 | 122.61092 | 24923 ft | 411 kts | 125° |
| 2026-04-16 14:10 | 13.69332 | 122.63440 | 24924 ft | 411 kts | 126° |
| 2026-04-16 14:10 | 13.67623 | 122.65788 | 24925 ft | 411 kts | 126° |
| 2026-04-16 14:11 | 13.65909 | 122.68140 | 24924 ft | 411 kts | 126° |
| 2026-04-16 14:11 | 13.64189 | 122.70505 | 24923 ft | 411 kts | 126° |
| 2026-04-16 14:11 | 13.62478 | 122.72859 | 24924 ft | 412 kts | 126° |
| 2026-04-16 14:11 | 13.60763 | 122.75221 | 24926 ft | 412 kts | 126° |
| 2026-04-16 14:12 | 13.59054 | 122.77573 | 24926 ft | 411 kts | 126° |
| 2026-04-16 14:12 | 13.57341 | 122.79932 | 24926 ft | 411 kts | 126° |
| 2026-04-16 14:12 | 13.55635 | 122.82282 | 24926 ft | 411 kts | 126° |
| 2026-04-16 14:12 | 13.53926 | 122.84632 | 24925 ft | 411 kts | 126° |
| 2026-04-16 14:13 | 13.52223 | 122.86977 | 24924 ft | 411 kts | 126° |
| 2026-04-16 14:13 | 13.50515 | 122.89326 | 24925 ft | 411 kts | 126° |
| 2026-04-16 14:13 | 13.48809 | 122.91673 | 24926 ft | 411 kts | 126° |
| 2026-04-16 14:13 | 13.47077 | 122.94055 | 24926 ft | 411 kts | 126° |
| 2026-04-16 14:14 | 13.45374 | 122.96397 | 24926 ft | 411 kts | 126° |
| 2026-04-16 14:14 | 13.43662 | 122.98749 | 24926 ft | 412 kts | 126° |
| 2026-04-16 14:14 | 13.41956 | 123.01095 | 24926 ft | 412 kts | 126° |
| 2026-04-16 14:14 | 13.40244 | 123.03447 | 24927 ft | 412 kts | 126° |
| 2026-04-16 14:15 | 13.38512 | 123.05825 | 24926 ft | 412 kts | 126° |
| 2026-04-16 14:15 | 13.36798 | 123.08174 | 24927 ft | 411 kts | 126° |
| 2026-04-16 14:15 | 13.35083 | 123.10518 | 24925 ft | 411 kts | 126° |
| 2026-04-16 14:15 | 13.33361 | 123.12874 | 24927 ft | 411 kts | 126° |
| 2026-04-16 14:16 | 13.31658 | 123.15205 | 24928 ft | 411 kts | 126° |
| 2026-04-16 14:16 | 13.29953 | 123.17535 | 24909 ft | 408 kts | 126° |
| 2026-04-16 14:16 | 13.28257 | 123.19855 | 24694 ft | 403 kts | 126° |
| 2026-04-16 14:16 | 13.26487 | 123.22061 | 24390 ft | 398 kts | 132° |
| 2026-04-16 14:17 | 13.24568 | 123.24117 | 24094 ft | 393 kts | 133° |
| 2026-04-16 14:17 | 13.22681 | 123.26090 | 23807 ft | 388 kts | 133° |
| 2026-04-16 14:17 | 13.20794 | 123.28059 | 23522 ft | 383 kts | 133° |
| 2026-04-16 14:17 | 13.18944 | 123.29997 | 23247 ft | 378 kts | 133° |
| 2026-04-16 14:18 | 13.17109 | 123.31924 | 22974 ft | 373 kts | 133° |
| 2026-04-16 14:18 | 13.15305 | 123.33821 | 22706 ft | 368 kts | 133° |
| 2026-04-16 14:18 | 13.13530 | 123.35689 | 22445 ft | 364 kts | 133° |
| 2026-04-16 14:18 | 13.11776 | 123.37534 | 22192 ft | 359 kts | 133° |
| 2026-04-16 14:19 | 13.10053 | 123.39349 | 21949 ft | 354 kts | 133° |
| 2026-04-16 14:19 | 13.08349 | 123.41139 | 21709 ft | 350 kts | 133° |
| 2026-04-16 14:19 | 13.06663 | 123.42912 | 21473 ft | 345 kts | 133° |
| 2026-04-16 14:19 | 13.05002 | 123.44659 | 21240 ft | 341 kts | 133° |
| 2026-04-16 14:20 | 13.03279 | 123.46312 | 20990 ft | 338 kts | 145° |
| 2026-04-16 14:20 | 13.01104 | 123.47166 | 20733 ft | 337 kts | 173° |
| 2026-04-16 14:20 | 12.98780 | 123.46881 | 20472 ft | 336 kts | 202° |
| 2026-04-16 14:20 | 12.96859 | 123.45587 | 20212 ft | 333 kts | 227° |
| 2026-04-16 14:21 | 12.95604 | 123.43610 | 19700 ft | 334 kts | 252° |
| 2026-04-16 14:21 | 12.95260 | 123.41257 | 19118 ft | 335 kts | 277° |
| 2026-04-16 14:21 | 12.95889 | 123.38995 | 18539 ft | 333 kts | 302° |
| 2026-04-16 14:21 | 12.97325 | 123.37154 | 17965 ft | 331 kts | 317° |
| 2026-04-16 14:22 | 12.98948 | 123.35477 | 17383 ft | 335 kts | 317° |
| 2026-04-16 14:22 | 13.00585 | 123.33758 | 16798 ft | 338 kts | 317° |
| 2026-04-16 14:22 | 13.02226 | 123.31993 | 16212 ft | 340 kts | 315° |
| 2026-04-16 14:22 | 13.03865 | 123.30267 | 15621 ft | 340 kts | 325° |
| 2026-04-16 14:23 | 13.05963 | 123.29246 | 15011 ft | 332 kts | 353° |
| 2026-04-16 14:23 | 13.08219 | 123.29346 | 14426 ft | 326 kts | 19° |
| 2026-04-16 14:23 | 13.10197 | 123.30419 | 13839 ft | 323 kts | 41° |
| 2026-04-16 14:23 | 13.11581 | 123.32236 | 13242 ft | 324 kts | 64° |
| 2026-04-16 14:24 | 13.12128 | 123.34450 | 12665 ft | 327 kts | 87° |
| 2026-04-16 14:24 | 13.11756 | 123.36738 | 12077 ft | 331 kts | 110° |
| 2026-04-16 14:24 | 13.10504 | 123.38706 | 11494 ft | 336 kts | 130° |
| 2026-04-16 14:24 | 13.08865 | 123.40445 | 10910 ft | 336 kts | 131° |
| 2026-04-16 14:25 | 13.07263 | 123.42178 | 10323 ft | 336 kts | 130° |
| 2026-04-16 14:25 | 13.05677 | 123.43905 | 9733 ft | 336 kts | 130° |
| 2026-04-16 14:25 | 13.04066 | 123.45649 | 9141 ft | 336 kts | 133° |
| 2026-04-16 14:25 | 13.02145 | 123.47010 | 8518 ft | 341 kts | 158° |
| 2026-04-16 14:26 | 12.99782 | 123.47327 | 7913 ft | 344 kts | 186° |
| 2026-04-16 14:26 | 12.97572 | 123.46521 | 7320 ft | 344 kts | 213° |
| 2026-04-16 14:26 | 12.95878 | 123.44803 | 6722 ft | 342 kts | 238° |
| 2026-04-16 14:26 | 12.95003 | 123.42584 | 6124 ft | 337 kts | 262° |
| 2026-04-16 14:27 | 12.95058 | 123.40207 | 5518 ft | 332 kts | 285° |
| 2026-04-16 14:27 | 12.96003 | 123.38099 | 4917 ft | 326 kts | 308° |
| 2026-04-16 14:27 | 12.97544 | 123.36423 | 4328 ft | 323 kts | 316° |
| 2026-04-16 14:27 | 12.99122 | 123.34781 | 3723 ft | 322 kts | 315° |
| 2026-04-16 14:28 | 13.00690 | 123.33130 | 3123 ft | 321 kts | 317° |
| 2026-04-16 14:28 | 13.02534 | 123.32003 | 2987 ft | 301 kts | 347° |
| 2026-04-16 14:28 | 13.04538 | 123.31921 | 3002 ft | 279 kts | 10° |
| 2026-04-16 14:28 | 13.06304 | 123.32522 | 3004 ft | 262 kts | 28° |
| 2026-04-16 14:29 | 13.07732 | 123.33598 | 3001 ft | 246 kts | 46° |
| 2026-04-16 14:29 | 13.08728 | 123.34969 | 3001 ft | 232 kts | 62° |
| 2026-04-16 14:29 | 13.09271 | 123.36472 | 3005 ft | 222 kts | 78° |
| 2026-04-16 14:29 | 13.09388 | 123.38071 | 3012 ft | 225 kts | 94° |
| 2026-04-16 14:30 | 13.09072 | 123.39625 | 3014 ft | 226 kts | 109° |
| 2026-04-16 14:30 | 13.08326 | 123.41062 | 3020 ft | 228 kts | 126° |
| 2026-04-16 14:30 | 13.07278 | 123.42284 | 3027 ft | 230 kts | 132° |
| 2026-04-16 14:30 | 13.06151 | 123.43471 | 3024 ft | 230 kts | 132° |
| 2026-04-16 14:31 | 13.05038 | 123.44645 | 3024 ft | 230 kts | 132° |
| 2026-04-16 14:31 | 13.03924 | 123.45827 | 2980 ft | 231 kts | 133° |
| 2026-04-16 14:31 | 13.02799 | 123.46999 | 2855 ft | 227 kts | 133° |
| 2026-04-16 14:31 | 13.01708 | 123.48133 | 2733 ft | 222 kts | 133° |
| 2026-04-16 14:32 | 13.00632 | 123.49255 | 2616 ft | 217 kts | 132° |
| 2026-04-16 14:32 | 12.99603 | 123.50333 | 2526 ft | 202 kts | 132° |
| 2026-04-16 14:32 | 12.98757 | 123.51379 | 2502 ft | 178 kts | 114° |
| 2026-04-16 14:32 | 12.98462 | 123.52534 | 2495 ft | 158 kts | 88° |
| 2026-04-16 14:33 | 12.98732 | 123.53565 | 2495 ft | 150 kts | 61° |
| 2026-04-16 14:33 | 12.99310 | 123.54462 | 2511 ft | 149 kts | 51° |
| 2026-04-16 14:33 | 12.99977 | 123.55279 | 2513 ft | 149 kts | 48° |
| 2026-04-16 14:33 | 13.00667 | 123.56064 | 2518 ft | 149 kts | 47° |
| 2026-04-16 14:34 | 13.01376 | 123.56850 | 2519 ft | 149 kts | 46° |
| 2026-04-16 14:34 | 13.02085 | 123.57632 | 2524 ft | 149 kts | 46° |
| 2026-04-16 14:34 | 13.02786 | 123.58404 | 2523 ft | 149 kts | 47° |
| 2026-04-16 14:34 | 13.03495 | 123.59185 | 2448 ft | 149 kts | 47° |
| 2026-04-16 14:35 | 13.04202 | 123.59965 | 2239 ft | 148 kts | 47° |
| 2026-04-16 14:35 | 13.04911 | 123.60749 | 2033 ft | 148 kts | 47° |
| 2026-04-16 14:35 | 13.05610 | 123.61520 | 1842 ft | 147 kts | 48° |
| 2026-04-16 14:35 | 13.06304 | 123.62286 | 1644 ft | 147 kts | 48° |
| 2026-04-16 14:36 | 13.06996 | 123.63051 | 1457 ft | 146 kts | 48° |
| 2026-04-16 14:36 | 13.07694 | 123.63821 | 1256 ft | 146 kts | 48° |
| 2026-04-16 14:36 | 13.08389 | 123.64590 | 1068 ft | 146 kts | 49° |
| 2026-04-16 14:36 | 13.09063 | 123.65358 | 867 ft | 145 kts | 48° |
| 2026-04-16 14:37 | 13.09768 | 123.66103 | 655 ft | 146 kts | 53° |
| 2026-04-16 14:37 | 13.10443 | 123.66861 | 455 ft | 142 kts | 48° |
| 2026-04-16 14:37 | 13.11110 | 123.67585 | 328 ft | 129 kts | 55° |
| 2026-04-16 14:37 | 13.11592 | 123.68124 | 314 ft | 77 kts | 42° |
| 2026-04-16 14:38 | 13.11858 | 123.68404 | 315 ft | 42 kts | 48° |
| 2026-04-16 14:38 | 13.11973 | 123.68599 | 319 ft | 16 kts | 64° |